createdAt,value
2019-04-29T00:04:30.666Z,11.30
2019-04-29T00:09:36.891Z,11.30
2019-04-29T00:14:44.536Z,11.20
2019-04-29T00:20:27.728Z,11.20
2019-04-29T00:25:34.025Z,11.10
2019-04-29T00:30:40.179Z,11.10
2019-04-29T00:35:46.201Z,11.10
2019-04-29T00:41:11.104Z,11.00
2019-04-29T00:46:17.271Z,10.90
2019-04-29T00:51:23.373Z,10.80
2019-04-29T00:56:29.600Z,10.80
2019-04-29T01:01:35.583Z,10.80
2019-04-29T01:06:41.773Z,10.70
2019-04-29T01:11:47.843Z,10.70
2019-04-29T01:16:53.926Z,10.60
2019-04-29T01:22:00.013Z,10.60
2019-04-29T01:27:20.398Z,10.40
2019-04-29T01:32:26.677Z,10.30
2019-04-29T01:37:43.389Z,10.20
2019-04-29T01:42:49.478Z,10.10
2019-04-29T01:47:55.446Z,10.00
2019-04-29T01:53:01.456Z,9.90
2019-04-29T01:58:07.309Z,9.90
2019-04-29T02:03:13.361Z,10.00
2019-04-29T02:08:19.163Z,10.00
2019-04-29T02:13:24.872Z,9.90
2019-04-29T02:18:30.872Z,9.80
2019-04-29T02:23:41.771Z,9.70
2019-04-29T02:28:47.771Z,9.50
2019-04-29T02:33:53.722Z,9.40
2019-04-29T02:39:34.088Z,9.30
2019-04-29T02:44:40.062Z,9.30
2019-04-29T02:49:46.160Z,9.10
2019-04-29T02:54:54.250Z,9.10
2019-04-29T03:00:10.952Z,9.20
2019-04-29T03:05:20.074Z,9.30
2019-04-29T03:10:25.926Z,9.30
2019-04-29T03:15:34.856Z,9.40
2019-04-29T03:20:50.112Z,9.40
2019-04-29T03:25:55.804Z,9.40
2019-04-29T03:31:01.791Z,9.40
2019-04-29T03:36:07.749Z,9.40
2019-04-29T03:41:13.738Z,9.30
2019-04-29T03:46:19.617Z,9.20
2019-04-29T03:51:25.518Z,9.10
2019-04-29T03:56:31.562Z,9.10
2019-04-29T04:01:49.679Z,9.00
2019-04-29T04:07:15.118Z,9.00
2019-04-29T04:12:21.052Z,9.10
2019-04-29T04:17:35.862Z,9.10
2019-04-29T04:22:48.773Z,9.10
2019-04-29T04:27:54.823Z,9.20
2019-04-29T04:33:00.597Z,9.20
2019-04-29T04:38:06.574Z,9.20
2019-04-29T04:43:12.528Z,9.20
2019-04-29T04:48:44.841Z,9.10
2019-04-29T04:53:50.791Z,9.10
2019-04-29T04:58:56.873Z,9.10
2019-04-29T05:04:02.792Z,9.10
2019-04-29T05:09:09.066Z,9.00
2019-04-29T05:14:15.021Z,9.10
2019-04-29T05:19:20.910Z,9.20
2019-04-29T05:24:26.953Z,9.30
2019-04-29T05:29:32.952Z,9.40
2019-04-29T05:34:41.912Z,9.40
2019-04-29T05:39:48.257Z,9.40
2019-04-29T05:45:06.992Z,9.40
2019-04-29T05:50:30.436Z,9.50
2019-04-29T05:55:36.419Z,9.60
2019-04-29T06:00:46.199Z,9.60
2019-04-29T06:05:52.242Z,9.70
2019-04-29T06:10:58.114Z,9.70
2019-04-29T06:16:04.208Z,9.80
2019-04-29T06:21:10.156Z,9.90
2019-04-29T06:26:15.935Z,9.90
2019-04-29T06:31:21.810Z,9.90
2019-04-29T06:36:27.771Z,9.90
2019-04-29T06:41:33.849Z,9.80
2019-04-29T06:46:39.965Z,9.90
2019-04-29T06:51:45.917Z,10.00
2019-04-29T06:56:51.935Z,10.10
2019-04-29T07:01:58.181Z,10.10
2019-04-29T07:07:04.935Z,10.20
2019-04-29T07:12:12.550Z,10.10
2019-04-29T07:17:18.447Z,10.10
2019-04-29T07:22:25.856Z,10.10
2019-04-29T07:27:34.851Z,10.30
2019-04-29T07:32:42.274Z,10.30
2019-04-29T07:37:47.657Z,10.40
2019-04-29T07:42:53.717Z,10.30
2019-04-29T07:48:01.767Z,10.30
2019-04-29T07:53:07.748Z,10.30
2019-04-29T07:58:13.655Z,10.30
2019-04-29T08:03:19.798Z,10.40
2019-04-29T08:08:26.601Z,10.50
2019-04-29T08:13:33.128Z,10.60
2019-04-29T08:18:39.264Z,11.00
2019-04-29T08:23:45.292Z,11.30
2019-04-29T08:28:53.036Z,11.20
2019-04-29T08:33:58.873Z,11.10
2019-04-29T08:39:08.855Z,11.10
2019-04-29T08:44:22.965Z,11.20
2019-04-29T08:49:30.562Z,11.30
2019-04-29T08:54:37.543Z,11.50
2019-04-29T08:59:43.628Z,11.80
2019-04-29T09:04:53.834Z,11.80
2019-04-29T09:10:01.660Z,12.10
2019-04-29T09:15:05.218Z,12.40
2019-04-29T09:20:12.198Z,12.60
2019-04-29T09:26:01.995Z,12.80
2019-04-29T09:30:56.727Z,13.00
2019-04-29T09:36:03.140Z,13.40
2019-04-29T09:41:25.301Z,13.30
2019-04-29T09:46:34.595Z,13.10
2019-04-29T09:51:41.990Z,13.30
2019-04-29T09:56:47.943Z,13.50
2019-04-29T10:02:26.339Z,13.40
2019-04-29T10:07:32.847Z,13.40
2019-04-29T10:12:39.439Z,13.50
2019-04-29T10:17:56.020Z,13.80
2019-04-29T10:23:02.334Z,13.90
2019-04-29T10:28:08.444Z,13.90
2019-04-29T10:33:17.690Z,13.90
2019-04-29T10:38:22.723Z,13.80
2019-04-29T10:44:06.116Z,13.70
2019-04-29T10:49:21.738Z,13.60
2019-04-29T10:54:29.850Z,13.60
2019-04-29T10:59:40.702Z,13.50
2019-04-29T11:04:46.886Z,13.50
2019-04-29T11:09:57.691Z,13.50
2019-04-29T11:15:05.378Z,13.60
2019-04-29T11:20:16.054Z,13.60
2019-04-29T11:25:42.417Z,13.60
2019-04-29T11:30:49.720Z,13.60
2019-04-29T11:36:03.999Z,13.60
2019-04-29T11:41:12.279Z,13.80
2019-04-29T11:46:21.009Z,13.90
2019-04-29T11:51:49.355Z,13.80
2019-04-29T11:56:42.337Z,13.80
2019-04-29T12:02:12.071Z,13.80
2019-04-29T12:07:21.048Z,13.80
2019-04-29T12:12:26.033Z,13.90
2019-04-29T12:17:36.631Z,13.90
2019-04-29T12:22:48.577Z,13.90
2019-04-29T12:28:01.183Z,13.90
2019-04-29T12:33:05.301Z,14.00
2019-04-29T12:38:39.738Z,14.10
2019-04-29T12:43:59.869Z,14.20
2019-04-29T12:49:08.593Z,14.20
2019-04-29T12:54:13.842Z,14.20
2019-04-29T12:59:20.905Z,14.30
2019-04-29T13:04:54.521Z,14.30
2019-04-29T13:10:07.031Z,14.30
2019-04-29T13:15:33.360Z,14.30
2019-04-29T13:20:41.541Z,14.30
2019-04-29T13:25:51.081Z,14.40
2019-04-29T13:30:56.781Z,14.40
2019-04-29T13:36:02.554Z,14.40
2019-04-29T13:41:13.516Z,14.40
2019-04-29T13:46:51.086Z,14.50
2019-04-29T13:51:55.115Z,14.50
2019-04-29T13:57:07.737Z,14.50
2019-04-29T14:02:32.257Z,14.50
2019-04-29T14:07:35.529Z,14.50
2019-04-29T14:12:48.562Z,14.50
2019-04-29T14:17:49.210Z,14.50
2019-04-29T14:22:58.481Z,14.60
2019-04-29T14:28:04.888Z,14.70
2019-04-29T14:33:11.856Z,14.70
2019-04-29T14:38:17.921Z,14.80
2019-04-29T14:43:56.975Z,14.90
2019-04-29T14:49:09.400Z,14.80
2019-04-29T14:54:15.483Z,14.80
2019-04-29T14:59:21.778Z,14.90
2019-04-29T15:04:31.360Z,14.90
2019-04-29T15:09:46.883Z,15.00
2019-04-29T15:15:06.076Z,14.90
2019-04-29T15:20:37.332Z,15.00
2019-04-29T15:25:43.361Z,15.00
2019-04-29T15:30:49.409Z,15.00
2019-04-29T15:35:59.789Z,15.10
2019-04-29T15:41:05.449Z,15.10
2019-04-29T15:46:11.373Z,15.10
2019-04-29T15:51:18.338Z,15.10
2019-04-29T15:56:28.970Z,15.10
2019-04-29T16:01:32.305Z,15.10
2019-04-29T16:07:00.666Z,15.10
2019-04-29T16:17:22.316Z,15.00
2019-04-29T16:22:28.448Z,15.10
2019-04-29T16:27:34.509Z,15.20
2019-04-29T16:32:41.245Z,15.20
2019-04-29T16:37:47.418Z,15.10
2019-04-29T16:43:02.197Z,15.10
2019-04-29T16:48:08.393Z,15.10
2019-04-29T16:53:14.651Z,15.00
2019-04-29T16:58:20.909Z,15.00
2019-04-29T17:03:27.132Z,14.90
2019-04-29T17:09:03.060Z,14.80
2019-04-29T17:14:03.254Z,14.80
2019-04-29T17:19:09.593Z,14.90
2019-04-29T17:24:15.703Z,15.00
2019-04-29T17:29:55.378Z,15.10
2019-04-29T17:35:01.240Z,15.20
2019-04-29T17:35:17.817Z,15.00
2019-04-29T17:40:09.082Z,15.20
2019-04-29T17:45:26.971Z,15.20
2019-04-29T17:50:33.238Z,15.10
2019-04-29T17:55:45.317Z,15.10
2019-04-29T18:01:10.514Z,15.10
2019-04-29T18:06:59.012Z,15.10
2019-04-29T18:12:11.178Z,15.00
2019-04-29T18:17:27.104Z,14.90
2019-04-29T18:22:44.674Z,14.90
2019-04-29T18:27:53.524Z,14.70
2019-04-29T18:32:58.415Z,14.60
2019-04-29T18:38:07.441Z,14.60
2019-04-29T18:43:12.302Z,14.60
2019-04-29T18:48:21.473Z,14.60
2019-04-29T18:53:26.397Z,14.50
2019-04-29T18:58:32.619Z,14.40
2019-04-29T19:03:55.732Z,14.40
2019-04-29T19:09:02.786Z,14.30
2019-04-29T19:14:09.949Z,14.20
2019-04-29T19:19:18.739Z,14.20
2019-04-29T19:24:23.806Z,14.10
2019-04-29T19:29:30.173Z,14.10
2019-04-29T19:34:42.895Z,14.10
2019-04-29T19:39:44.963Z,14.00
2019-04-29T19:44:51.311Z,13.90
2019-04-29T19:49:57.440Z,14.00
2019-04-29T19:55:03.666Z,13.80
2019-04-29T20:00:10.569Z,13.80
2019-04-29T20:05:23.815Z,13.70
2019-04-29T20:10:31.038Z,13.70
2019-04-29T20:15:45.933Z,13.60
2019-04-29T20:21:08.941Z,13.50
2019-04-29T20:26:16.929Z,13.60
2019-04-29T20:31:22.402Z,13.60
2019-04-29T20:36:38.542Z,13.50
2019-04-29T20:41:40.700Z,13.50
2019-04-29T20:47:06.785Z,13.40
2019-04-29T20:51:55.811Z,13.30
2019-04-29T20:57:05.482Z,13.30
2019-04-29T21:02:12.703Z,13.20
2019-04-29T21:07:23.852Z,13.10
2019-04-29T21:12:50.006Z,13.00
2019-04-29T21:17:58.625Z,12.90
2019-04-29T21:23:04.187Z,12.80
2019-04-29T21:28:10.242Z,12.80
2019-04-29T21:33:20.998Z,12.80
2019-04-29T21:38:35.718Z,12.70
2019-04-29T21:43:42.427Z,12.60
2019-04-29T21:48:48.599Z,12.60
2019-04-29T21:53:56.003Z,12.50
2019-04-29T21:59:02.587Z,12.50
2019-04-29T22:04:09.806Z,12.40
2019-04-29T22:09:16.484Z,12.40
2019-04-29T22:14:22.842Z,12.40
2019-04-29T22:19:29.174Z,12.30
2019-04-29T22:24:35.692Z,12.30
2019-04-29T22:29:42.861Z,12.30
2019-04-29T22:34:49.617Z,12.20
2019-04-29T22:39:58.638Z,12.10
2019-04-29T22:45:05.671Z,12.10
2019-04-29T22:50:12.144Z,12.00
2019-04-29T22:55:18.155Z,12.00
2019-04-29T23:00:32.760Z,11.80
2019-04-29T23:05:35.674Z,11.70
2019-04-29T23:10:41.774Z,11.60
2019-04-29T23:15:47.670Z,11.60
2019-04-29T23:21:11.147Z,11.60
2019-04-29T23:26:17.201Z,11.60
2019-04-29T23:31:27.205Z,11.50
2019-04-29T23:36:31.208Z,11.50
2019-04-29T23:41:37.183Z,11.50
2019-04-29T23:46:43.035Z,11.40
2019-04-29T23:51:48.961Z,11.40
2019-04-29T23:57:29.006Z,11.30
